Time;durP1;ratioP1;P1;durP2;ratioP2;P2;SDS_P1;SDS_P2;PMS_P1;PMS_P2;Temp;Humidity;BMP_temperature;BMP_pressure;BME280_temperature;BME280_humidity;BME280_pressure;Samples;Min_cycle;Max_cycle;Signal;HPM_P1;HPM_P2
2022/04/15 00:01:17;;;;;;;1.10;0.70;;;19.30;59.70;;;;;;4970743;28;20066;-15
2022/04/15 00:03:43;;;;;;;0.80;0.80;;;19.30;59.70;;;;;;4976544;28;20043;-15
2022/04/15 00:06:10;;;;;;;1.05;1.00;;;19.30;59.60;;;;;;4971790;28;20066;-14
2022/04/15 00:08:36;;;;;;;0.80;0.68;;;19.30;59.70;;;;;;4973897;28;20050;-14
2022/04/15 00:11:02;;;;;;;0.60;0.60;;;19.30;59.70;;;;;;4975306;28;20034;-14
2022/04/15 00:13:29;;;;;;;0.90;0.90;;;19.20;59.70;;;;;;4974564;28;20051;-14
2022/04/15 00:15:58;;;;;;;0.93;0.93;;;19.20;59.90;;;;;;4972927;28;20078;-14
2022/04/15 00:18:24;;;;;;;0.80;0.80;;;19.20;59.90;;;;;;4974893;28;20134;-14
2022/04/15 00:20:52;;;;;;;0.80;0.60;;;19.20;60.00;;;;;;4975954;28;20063;-14
2022/04/15 00:23:18;;;;;;;0.80;0.80;;;19.20;59.80;;;;;;4970320;28;20042;-14
2022/04/15 00:25:44;;;;;;;0.75;0.75;;;19.20;59.90;;;;;;4976423;28;20071;-15
2022/04/15 00:28:09;;;;;;;1.08;0.90;;;19.20;59.90;;;;;;4958172;28;20079;-14
2022/04/15 00:30:35;;;;;;;1.05;0.90;;;19.20;59.90;;;;;;4956895;28;20071;-13
2022/04/15 00:33:00;;;;;;;0.70;0.70;;;19.20;59.80;;;;;;4957461;28;20051;-14
2022/04/15 00:35:26;;;;;;;0.70;0.70;;;19.20;59.80;;;;;;4956338;28;20681;-14
2022/04/15 00:37:52;;;;;;;1.55;0.77;;;19.20;59.80;;;;;;4956987;28;20043;-16
2022/04/15 00:40:17;;;;;;;1.30;0.90;;;19.20;59.80;;;;;;4956296;28;20036;-14
2022/04/15 00:42:43;;;;;;;0.85;0.85;;;19.20;59.90;;;;;;4957441;28;20043;-13
2022/04/15 00:45:12;;;;;;;1.00;0.90;;;19.20;59.80;;;;;;4956454;28;20040;-16
2022/04/15 00:47:51;;;;;;;0.68;0.68;;;19.10;59.80;;;;;;4957050;28;20043;-13
2022/04/15 00:50:20;;;;;;;0.70;0.70;;;19.10;60.00;;;;;;4956544;28;20083;-14
2022/04/15 00:52:47;;;;;;;1.20;0.90;;;19.10;60.00;;;;;;4957119;28;20047;-15
2022/04/15 00:55:14;;;;;;;0.88;0.88;;;19.10;59.90;;;;;;4956393;28;20067;-14
2022/04/15 00:57:40;;;;;;;1.00;1.00;;;19.10;59.90;;;;;;4956870;28;20515;-14
2022/04/15 01:00:07;;;;;;;0.82;0.80;;;19.10;60.00;;;;;;4957031;28;20043;-13
2022/04/15 01:02:33;;;;;;;0.80;0.80;;;19.10;60.00;;;;;;4956498;28;20425;-15
2022/04/15 01:04:58;;;;;;;0.88;0.80;;;19.10;60.10;;;;;;4956673;28;20054;-14
2022/04/15 01:07:26;;;;;;;0.70;0.70;;;19.10;60.00;;;;;;4958191;28;20102;-14
2022/04/15 01:09:52;;;;;;;0.80;0.80;;;19.10;60.10;;;;;;4960165;28;20047;-14
2022/04/15 01:12:18;;;;;;;0.75;0.70;;;19.10;60.20;;;;;;4959978;28;20436;-13
2022/04/15 01:14:43;;;;;;;0.65;0.65;;;19.00;60.10;;;;;;4975954;28;20055;-13
2022/04/15 01:17:09;;;;;;;1.00;0.90;;;19.00;60.30;;;;;;4977546;28;20435;-14
2022/04/15 01:19:34;;;;;;;0.70;0.63;;;19.00;60.30;;;;;;4978816;28;20500;-14
2022/04/15 01:22:02;;;;;;;0.75;0.75;;;19.00;60.20;;;;;;4979211;28;20046;-14
2022/04/15 01:24:29;;;;;;;0.90;0.90;;;19.00;60.30;;;;;;4975232;28;20053;-15
2022/04/15 01:26:54;;;;;;;0.93;0.80;;;19.00;60.40;;;;;;4975532;28;20047;-14
2022/04/15 01:29:20;;;;;;;0.70;0.70;;;19.00;60.30;;;;;;4974139;28;20043;-15
2022/04/15 01:31:45;;;;;;;0.95;0.77;;;19.00;60.30;;;;;;4960002;28;20172;-13
2022/04/15 01:34:11;;;;;;;0.70;0.70;;;19.00;60.40;;;;;;4959416;28;20472;-13
2022/04/15 01:36:37;;;;;;;0.77;0.70;;;18.90;60.30;;;;;;4959406;28;20039;-13
2022/04/15 01:39:02;;;;;;;1.27;0.80;;;18.90;60.40;;;;;;4959825;28;20532;-13
2022/04/15 01:41:28;;;;;;;0.82;0.80;;;18.90;60.40;;;;;;4959162;28;20035;-14
2022/04/15 01:43:53;;;;;;;1.33;1.15;;;18.90;60.40;;;;;;4959931;28;20044;-13
2022/04/15 01:46:19;;;;;;;0.80;0.80;;;18.90;60.50;;;;;;4959044;28;20159;-15
2022/04/15 01:48:45;;;;;;;0.80;0.80;;;18.90;60.50;;;;;;4959647;28;20047;-14
2022/04/15 01:51:10;;;;;;;1.08;1.08;;;18.90;60.50;;;;;;4959491;28;20489;-13
2022/04/15 01:53:36;;;;;;;1.48;0.98;;;18.90;60.60;;;;;;4959309;28;20162;-13
2022/04/15 01:56:01;;;;;;;0.80;0.80;;;18.90;60.60;;;;;;4959560;28;20456;-14
2022/04/15 01:58:27;;;;;;;0.60;0.60;;;18.90;60.60;;;;;;4958842;28;20066;-14
2022/04/15 02:00:52;;;;;;;0.77;0.77;;;18.90;60.60;;;;;;4959733;28;20050;-14
2022/04/15 02:03:18;;;;;;;0.70;0.70;;;18.90;60.70;;;;;;4959098;28;20537;-14
2022/04/15 02:05:44;;;;;;;0.85;0.70;;;18.90;60.60;;;;;;4959019;28;20101;-14
2022/04/15 02:08:09;;;;;;;0.80;0.63;;;18.90;60.60;;;;;;4959251;28;20043;-14
2022/04/15 02:10:35;;;;;;;0.73;0.73;;;18.90;60.70;;;;;;4958633;28;20047;-14
2022/04/15 02:13:00;;;;;;;1.08;1.05;;;18.90;60.60;;;;;;4959632;28;20101;-14
2022/04/15 02:15:26;;;;;;;1.08;0.80;;;18.80;60.60;;;;;;4977895;28;20381;-13
2022/04/15 02:17:54;;;;;;;0.90;0.90;;;18.80;60.70;;;;;;4972309;28;20047;-14
2022/04/15 02:20:19;;;;;;;0.93;0.93;;;18.90;60.80;;;;;;4958645;28;20050;-14
2022/04/15 02:22:45;;;;;;;0.68;0.68;;;18.90;60.70;;;;;;4957248;28;20055;-14
2022/04/15 02:25:10;;;;;;;1.35;0.82;;;18.80;60.70;;;;;;4958929;28;20055;-14
2022/04/15 02:27:36;;;;;;;1.08;1.00;;;18.80;60.80;;;;;;4958563;28;20071;-14
2022/04/15 02:30:02;;;;;;;0.82;0.82;;;18.80;60.70;;;;;;4958913;28;20114;-14
2022/04/15 02:32:29;;;;;;;0.77;0.77;;;18.80;60.90;;;;;;4958472;28;20074;-14
2022/04/15 02:34:55;;;;;;;1.05;0.70;;;18.80;60.70;;;;;;4958616;28;20040;-14
2022/04/15 02:37:21;;;;;;;0.70;0.70;;;18.80;60.90;;;;;;4958391;28;20043;-14
2022/04/15 02:39:48;;;;;;;1.10;1.00;;;18.80;60.80;;;;;;4958632;28;20059;-14
2022/04/15 02:42:14;;;;;;;0.77;0.77;;;18.80;60.80;;;;;;4958660;28;20050;-14
2022/04/15 02:44:39;;;;;;;1.48;0.70;;;18.80;60.80;;;;;;4958251;28;20039;-13
2022/04/15 02:47:06;;;;;;;0.80;0.80;;;18.80;60.90;;;;;;4958577;28;20043;-14
2022/04/15 02:49:32;;;;;;;0.50;0.50;;;18.80;60.90;;;;;;4956435;28;20197;-14
2022/04/15 02:51:57;;;;;;;1.20;0.85;;;18.80;60.90;;;;;;4957563;28;20082;-14
2022/04/15 02:54:23;;;;;;;1.05;0.75;;;18.70;60.90;;;;;;4957832;28;20039;-13
2022/04/15 02:56:49;;;;;;;0.80;0.75;;;18.70;60.90;;;;;;4958749;28;20051;-14
2022/04/15 02:59:16;;;;;;;0.70;0.70;;;18.70;60.80;;;;;;4958342;28;20047;-13
2022/04/15 03:01:43;;;;;;;0.80;0.80;;;18.70;60.90;;;;;;4967756;28;20496;-13
2022/04/15 03:04:08;;;;;;;1.45;0.50;;;18.80;60.90;;;;;;4958070;28;20046;-14
2022/04/15 03:06:34;;;;;;;1.10;1.05;;;18.70;60.90;;;;;;4957569;28;20039;-15
2022/04/15 03:08:59;;;;;;;1.02;0.85;;;18.70;60.90;;;;;;4973525;28;20109;-13
2022/04/15 03:11:25;;;;;;;0.73;0.70;;;18.70;60.90;;;;;;4976841;28;20133;-15
2022/04/15 03:13:50;;;;;;;0.80;0.80;;;18.70;60.80;;;;;;4977225;28;20066;-14
2022/04/15 03:16:16;;;;;;;0.80;0.80;;;18.70;60.90;;;;;;4976559;28;20058;-13
2022/04/15 03:18:42;;;;;;;0.60;0.60;;;18.70;61.00;;;;;;4976621;28;20072;-14
2022/04/15 03:21:08;;;;;;;0.82;0.82;;;18.70;61.00;;;;;;4964641;28;20142;-14
2022/04/15 03:23:33;;;;;;;0.95;0.80;;;18.70;61.00;;;;;;4957235;28;20129;-14
2022/04/15 03:25:59;;;;;;;0.60;0.60;;;18.70;61.00;;;;;;4957769;28;20087;-14
2022/04/15 03:28:25;;;;;;;1.80;1.00;;;18.70;61.10;;;;;;4957215;28;20054;-14
2022/04/15 03:30:50;;;;;;;0.77;0.77;;;18.60;60.90;;;;;;4957756;28;20055;-13
2022/04/15 03:33:16;;;;;;;2.05;0.70;;;18.70;61.00;;;;;;4958063;28;20047;-15
2022/04/15 03:35:42;;;;;;;1.50;1.00;;;18.60;60.90;;;;;;4957035;28;20082;-13
2022/04/15 03:38:07;;;;;;;0.93;0.93;;;18.70;61.00;;;;;;4957630;28;20039;-14
2022/04/15 03:40:33;;;;;;;1.20;1.20;;;18.60;60.80;;;;;;4956890;28;20074;-14
2022/04/15 03:42:59;;;;;;;1.00;0.90;;;18.60;60.90;;;;;;4957592;28;20075;-14
2022/04/15 03:45:25;;;;;;;0.80;0.80;;;18.70;61.10;;;;;;4956940;28;20051;-13
2022/04/15 03:47:52;;;;;;;0.68;0.68;;;18.70;61.00;;;;;;4957838;28;20405;-14
2022/04/15 03:50:17;;;;;;;0.80;0.80;;;18.60;60.90;;;;;;4957596;28;20070;-14
2022/04/15 03:52:46;;;;;;;0.85;0.85;;;18.60;61.10;;;;;;4956797;28;20043;-13
2022/04/15 03:55:18;;;;;;;0.80;0.80;;;18.60;61.00;;;;;;4957347;28;20134;-14
2022/04/15 03:57:44;;;;;;;1.00;0.90;;;18.60;61.00;;;;;;4956791;28;20049;-14
2022/04/15 04:00:14;;;;;;;0.90;0.80;;;18.60;61.10;;;;;;4957466;28;20051;-13
2022/04/15 04:02:43;;;;;;;0.90;0.90;;;18.60;61.00;;;;;;4956571;28;20039;-13
2022/04/15 04:05:09;;;;;;;0.90;0.90;;;18.60;61.00;;;;;;4976321;28;20416;-14
2022/04/15 04:07:35;;;;;;;0.90;0.90;;;18.60;61.10;;;;;;4976041;28;20069;-15
2022/04/15 04:10:00;;;;;;;0.88;0.88;;;18.60;61.00;;;;;;4963890;28;20051;-13
2022/04/15 04:12:29;;;;;;;0.80;0.80;;;18.60;61.10;;;;;;4956610;28;20126;-13
2022/04/15 04:14:55;;;;;;;0.70;0.70;;;18.60;61.00;;;;;;4956231;28;20463;-13
2022/04/15 04:17:21;;;;;;;1.10;1.10;;;18.60;61.10;;;;;;4968297;28;20510;-14
2022/04/15 04:19:47;;;;;;;1.20;1.10;;;18.50;61.20;;;;;;4960293;28;20066;-13
2022/04/15 04:22:13;;;;;;;1.00;0.80;;;18.60;61.20;;;;;;4957056;28;20357;-13
2022/04/15 04:24:38;;;;;;;1.02;0.80;;;18.50;61.20;;;;;;4956385;28;20138;-14
2022/04/15 04:27:04;;;;;;;0.90;0.90;;;18.50;61.20;;;;;;4957601;28;20126;-13
2022/04/15 04:29:29;;;;;;;0.70;0.70;;;18.50;61.20;;;;;;4956653;28;20055;-13
2022/04/15 04:31:55;;;;;;;0.47;0.47;;;18.50;61.10;;;;;;4957130;28;20047;-13
2022/04/15 04:34:21;;;;;;;0.98;0.80;;;18.50;61.10;;;;;;4957157;28;20075;-15
2022/04/15 04:36:46;;;;;;;0.85;0.80;;;18.50;61.20;;;;;;4956383;28;20497;-13
2022/04/15 04:39:12;;;;;;;0.75;0.75;;;18.50;61.20;;;;;;4957029;28;20170;-14
2022/04/15 04:41:37;;;;;;;0.82;0.82;;;18.50;61.10;;;;;;4957431;28;20051;-14
2022/04/15 04:44:04;;;;;;;0.98;0.98;;;18.50;61.10;;;;;;4961057;28;20518;-14
2022/04/15 04:46:30;;;;;;;0.73;0.73;;;18.50;61.10;;;;;;4975516;28;20047;-14
2022/04/15 04:48:55;;;;;;;0.70;0.70;;;18.50;61.00;;;;;;4979770;28;20499;-13
2022/04/15 04:51:21;;;;;;;0.85;0.85;;;18.50;61.10;;;;;;4980050;28;20069;-14
2022/04/15 04:53:46;;;;;;;0.82;0.82;;;18.50;61.10;;;;;;4975764;28;20059;-14
2022/04/15 04:56:12;;;;;;;0.77;0.77;;;18.50;61.10;;;;;;4979929;28;20043;-13
2022/04/15 04:58:38;;;;;;;1.08;1.02;;;18.50;61.20;;;;;;4979156;28;20424;-14
2022/04/15 05:01:03;;;;;;;0.80;0.65;;;18.40;61.10;;;;;;4979791;28;20118;-13
2022/04/15 05:03:29;;;;;;;0.80;0.80;;;18.50;61.20;;;;;;4978549;28;20059;-14
2022/04/15 05:05:54;;;;;;;0.93;0.80;;;18.40;61.10;;;;;;4979571;28;20062;-15
2022/04/15 05:08:20;;;;;;;0.80;0.80;;;18.50;61.20;;;;;;4976837;28;22085;-14
2022/04/15 05:10:46;;;;;;;2.35;1.00;;;18.50;61.10;;;;;;4619982;28;10000677;-14
2022/04/15 05:13:11;;;;;;;0.80;0.70;;;18.40;61.20;;;;;;4975557;28;20069;-13
2022/04/15 05:15:37;;;;;;;1.15;0.85;;;18.40;61.20;;;;;;4977155;28;20061;-15
2022/04/15 05:18:02;;;;;;;1.35;1.25;;;18.40;61.10;;;;;;4973084;28;20487;-15
2022/04/15 05:20:29;;;;;;;1.17;0.82;;;18.40;61.30;;;;;;4970687;28;20114;-13
2022/04/15 05:22:54;;;;;;;0.93;0.73;;;18.50;61.10;;;;;;4965128;28;20059;-14
2022/04/15 05:25:20;;;;;;;1.10;0.80;;;18.50;61.10;;;;;;4975043;28;20057;-14
2022/04/15 05:27:46;;;;;;;0.80;0.80;;;18.40;61.10;;;;;;4973734;28;20165;-14
2022/04/15 05:30:11;;;;;;;1.00;0.82;;;18.40;61.10;;;;;;4966622;28;20047;-15
2022/04/15 05:32:37;;;;;;;0.80;0.80;;;18.50;61.10;;;;;;4967427;28;20046;-14
2022/04/15 05:35:03;;;;;;;0.90;0.90;;;18.50;60.90;;;;;;4965932;28;20516;-15
2022/04/15 05:37:28;;;;;;;0.60;0.60;;;18.50;61.00;;;;;;4968297;28;20083;-16
2022/04/15 05:39:54;;;;;;;0.75;0.75;;;18.50;61.70;;;;;;4963806;28;20050;-14
2022/04/15 05:42:20;;;;;;;0.68;0.68;;;18.50;60.60;;;;;;4971175;28;20054;-14
2022/04/15 05:44:45;;;;;;;0.90;0.90;;;18.50;60.70;;;;;;4965571;28;20103;-14
2022/04/15 05:47:11;;;;;;;0.77;0.73;;;18.50;60.50;;;;;;4969905;28;20081;-14
2022/04/15 05:49:36;;;;;;;0.90;0.90;;;18.50;60.50;;;;;;4975038;28;20038;-14
2022/04/15 05:52:02;;;;;;;0.70;0.70;;;18.50;60.50;;;;;;4972953;28;20062;-14
2022/04/15 05:54:28;;;;;;;0.93;0.93;;;18.50;60.50;;;;;;4970796;28;20093;-14
2022/04/15 05:56:54;;;;;;;1.05;0.82;;;18.50;60.50;;;;;;4970090;28;20083;-14
2022/04/15 05:59:22;;;;;;;0.70;0.70;;;18.50;60.60;;;;;;4973338;28;20098;-14
2022/04/15 06:01:48;;;;;;;0.80;0.80;;;18.50;61.50;;;;;;4972513;28;20041;-13
2022/04/15 06:04:14;;;;;;;0.80;0.80;;;18.50;60.70;;;;;;4965999;28;20461;-14
2022/04/15 06:06:39;;;;;;;0.68;0.68;;;18.40;60.70;;;;;;4960555;28;20522;-14
2022/04/15 06:09:05;;;;;;;0.90;0.90;;;18.50;60.70;;;;;;4974417;28;20047;-15
2022/04/15 06:11:31;;;;;;;0.77;0.70;;;18.40;60.70;;;;;;4961763;28;20051;-15
2022/04/15 06:13:57;;;;;;;0.80;0.80;;;18.40;60.70;;;;;;4968158;28;20076;-13
2022/04/15 06:16:26;;;;;;;0.77;0.77;;;18.40;60.70;;;;;;4958678;28;20110;-14
2022/04/15 06:18:51;;;;;;;0.80;0.80;;;18.40;60.80;;;;;;4972455;28;20050;-14
2022/04/15 06:21:17;;;;;;;0.80;0.80;;;18.50;60.80;;;;;;4961940;28;20055;-13
2022/04/15 06:23:42;;;;;;;0.80;0.80;;;18.50;60.90;;;;;;4979572;28;20086;-14
2022/04/15 06:26:08;;;;;;;0.65;0.63;;;18.50;60.80;;;;;;4974793;28;20475;-14
2022/04/15 06:28:34;;;;;;;0.90;0.90;;;18.50;60.80;;;;;;4971596;28;20046;-14
2022/04/15 06:30:59;;;;;;;0.60;0.60;;;18.50;60.90;;;;;;4966254;28;20050;-14
2022/04/15 06:33:25;;;;;;;1.48;0.93;;;18.50;60.70;;;;;;4966666;28;20074;-13
2022/04/15 06:35:53;;;;;;;0.63;0.63;;;18.50;60.90;;;;;;4960349;28;20043;-15
2022/04/15 06:38:19;;;;;;;0.93;0.93;;;18.50;61.10;;;;;;4973821;28;20158;-15
2022/04/15 06:40:45;;;;;;;1.90;1.20;;;18.50;61.20;;;;;;4974995;28;20066;-14
2022/04/15 06:43:10;;;;;;;1.00;1.00;;;18.50;61.10;;;;;;4963193;28;20054;-14
2022/04/15 06:45:36;;;;;;;0.88;0.88;;;18.50;61.10;;;;;;4970544;28;20039;-14
2022/04/15 06:48:02;;;;;;;2.15;1.10;;;18.50;61.00;;;;;;4974008;28;20736;-13
2022/04/15 06:50:28;;;;;;;1.10;1.08;;;18.50;61.20;;;;;;4964093;28;20043;-13
2022/04/15 06:52:53;;;;;;;1.00;1.00;;;18.50;61.40;;;;;;4957619;28;20063;-13
2022/04/15 06:55:19;;;;;;;1.13;1.00;;;18.50;61.30;;;;;;4975977;28;20066;-14
2022/04/15 06:57:45;;;;;;;1.10;1.00;;;18.40;61.40;;;;;;4960356;28;20079;-14
2022/04/15 07:00:13;;;;;;;1.30;1.30;;;18.50;61.50;;;;;;4957219;28;20047;-14
2022/04/15 07:02:41;;;;;;;1.60;1.50;;;18.40;61.50;;;;;;4956618;28;20500;-13
2022/04/15 07:05:09;;;;;;;1.17;1.17;;;18.40;61.70;;;;;;4956579;28;20043;-14
2022/04/15 07:07:35;;;;;;;2.88;1.70;;;18.40;62.60;;;;;;4956191;28;20409;-14
2022/04/15 07:10:01;;;;;;;1.70;1.60;;;18.40;61.90;;;;;;4962981;28;20080;-14
2022/04/15 07:12:26;;;;;;;2.00;1.75;;;18.40;62.10;;;;;;4975849;28;20045;-14
2022/04/15 07:14:52;;;;;;;1.60;1.35;;;18.40;61.90;;;;;;4973077;28;20563;-14
2022/04/15 07:17:17;;;;;;;1.55;1.45;;;18.40;62.10;;;;;;4976588;28;20043;-15
2022/04/15 07:19:43;;;;;;;2.08;1.58;;;18.60;61.80;;;;;;4969001;28;20065;-14
2022/04/15 07:22:09;;;;;;;1.60;1.38;;;18.70;61.20;;;;;;4976786;28;20121;-14
2022/04/15 07:24:34;;;;;;;3.42;1.65;;;18.90;60.70;;;;;;4976103;28;20046;-14
2022/04/15 07:27:00;;;;;;;2.03;1.70;;;19.20;60.10;;;;;;4958798;28;20039;-14
2022/04/15 07:29:26;;;;;;;1.70;1.60;;;19.20;59.90;;;;;;4957244;28;20050;-14
2022/04/15 07:31:52;;;;;;;3.92;1.60;;;19.30;59.70;;;;;;4957036;28;20138;-14
2022/04/15 07:34:18;;;;;;;2.78;1.90;;;19.50;59.20;;;;;;4955813;28;20039;-14
2022/04/15 07:36:45;;;;;;;1.95;1.25;;;19.70;58.70;;;;;;4956879;28;20050;-14
2022/04/15 07:39:12;;;;;;;2.53;1.73;;;19.80;58.50;;;;;;4957560;28;20577;-14
2022/04/15 07:41:38;;;;;;;2.45;1.30;;;20.00;58.30;;;;;;4958748;28;20133;-15
2022/04/15 07:44:05;;;;;;;1.80;1.00;;;20.10;57.60;;;;;;4976848;28;20073;-14
2022/04/15 07:46:30;;;;;;;1.05;1.05;;;20.10;57.20;;;;;;4976570;28;20046;-14
2022/04/15 07:48:56;;;;;;;1.17;1.08;;;20.10;57.20;;;;;;4970703;28;20051;-15
2022/04/15 07:51:22;;;;;;;0.93;0.90;;;19.80;58.10;;;;;;4957280;28;20484;-14
2022/04/15 07:53:47;;;;;;;1.40;1.13;;;19.30;59.40;;;;;;4966575;28;20054;-14
2022/04/15 07:56:13;;;;;;;1.23;1.13;;;19.10;60.00;;;;;;4976359;28;20105;-16
2022/04/15 07:58:38;;;;;;;2.25;1.00;;;19.10;60.20;;;;;;4968142;28;20054;-15
2022/04/15 08:01:04;;;;;;;2.10;1.17;;;19.00;60.30;;;;;;4957141;28;20047;-15
2022/04/15 08:03:29;;;;;;;1.27;1.10;;;19.00;60.40;;;;;;4957268;28;20066;-15
2022/04/15 08:05:55;;;;;;;2.45;0.88;;;19.00;60.50;;;;;;4956100;28;20085;-15
2022/04/15 08:08:21;;;;;;;1.10;1.00;;;19.10;60.50;;;;;;4974606;28;20039;-14
2022/04/15 08:10:51;;;;;;;2.58;1.20;;;19.10;60.30;;;;;;4957159;28;20054;-16
2022/04/15 08:13:17;;;;;;;3.35;1.10;;;19.10;60.20;;;;;;4957026;28;20075;-16
2022/04/15 08:15:42;;;;;;;3.13;1.38;;;19.10;60.40;;;;;;4954011;28;20449;-14
2022/04/15 08:18:08;;;;;;;0.80;0.80;;;19.10;60.50;;;;;;4973005;28;20377;-19
2022/04/15 08:20:34;;;;;;;0.75;0.70;;;19.00;60.50;;;;;;4960940;28;20055;-20
2022/04/15 08:22:59;;;;;;;1.83;0.90;;;19.00;60.70;;;;;;4963529;28;20055;-18
2022/04/15 08:25:25;;;;;;;1.75;0.80;;;19.00;60.70;;;;;;4957608;28;20058;-18
2022/04/15 08:27:50;;;;;;;0.80;0.80;;;19.10;60.80;;;;;;4962054;28;20050;-17
2022/04/15 08:30:16;;;;;;;0.80;0.80;;;19.10;60.70;;;;;;4962832;28;20424;-17
2022/04/15 08:32:42;;;;;;;1.05;1.05;;;19.10;60.80;;;;;;4963227;28;20051;-17
2022/04/15 08:35:11;;;;;;;1.25;1.15;;;19.00;60.90;;;;;;4961549;28;20206;-17
2022/04/15 08:37:37;;;;;;;1.05;0.70;;;19.10;60.90;;;;;;4961514;28;20047;-17
2022/04/15 08:40:03;;;;;;;1.20;0.80;;;19.10;60.90;;;;;;4962157;28;20062;-16
2022/04/15 08:42:29;;;;;;;1.10;0.90;;;19.10;60.90;;;;;;4963280;28;20046;-17
2022/04/15 08:44:56;;;;;;;0.93;0.80;;;19.10;61.70;;;;;;4958166;28;20059;-17
2022/04/15 08:47:21;;;;;;;1.58;0.77;;;19.20;60.90;;;;;;4962157;28;20058;-19
2022/04/15 08:49:47;;;;;;;0.80;0.80;;;19.10;60.90;;;;;;4961667;28;20051;-17
2022/04/15 08:52:16;;;;;;;0.70;0.70;;;19.10;60.80;;;;;;4961129;28;20055;-17
2022/04/15 08:54:43;;;;;;;1.60;0.90;;;19.20;60.80;;;;;;4960353;28;20050;-16
2022/04/15 08:57:09;;;;;;;0.70;0.70;;;19.20;60.70;;;;;;4960142;28;20598;-18
2022/04/15 08:59:35;;;;;;;1.92;0.85;;;19.30;60.50;;;;;;4962780;28;20911;-18
2022/04/15 09:02:00;;;;;;;2.85;0.80;;;19.40;60.50;;;;;;4961896;28;20050;-16
2022/04/15 09:04:26;;;;;;;1.02;1.00;;;19.40;60.40;;;;;;4962716;28;20043;-19
2022/04/15 09:06:55;;;;;;;1.20;0.70;;;19.50;60.10;;;;;;4959798;28;20149;-17
2022/04/15 09:09:24;;;;;;;0.77;0.75;;;19.60;59.90;;;;;;4959943;28;20057;-17
2022/04/15 09:11:50;;;;;;;1.02;0.60;;;19.60;60.00;;;;;;4961713;28;20059;-18
2022/04/15 09:14:15;;;;;;;0.65;0.63;;;19.60;59.80;;;;;;4960959;28;20047;-16
2022/04/15 09:16:42;;;;;;;0.70;0.70;;;19.70;59.80;;;;;;4958058;28;20054;-19
2022/04/15 09:19:08;;;;;;;1.20;0.80;;;19.70;59.70;;;;;;4960671;28;20046;-17
2022/04/15 09:21:34;;;;;;;2.53;0.70;;;19.70;59.60;;;;;;4962346;28;20066;-16
2022/04/15 09:24:00;;;;;;;1.90;1.10;;;19.80;59.60;;;;;;4961152;28;20055;-14
2022/04/15 09:26:26;;;;;;;1.10;0.70;;;19.80;59.50;;;;;;4965398;28;20060;-15
2022/04/15 09:28:53;;;;;;;0.90;0.90;;;19.80;59.50;;;;;;4976963;28;20447;-15
2022/04/15 09:31:19;;;;;;;0.77;0.77;;;19.80;59.50;;;;;;4978508;28;20050;-14
2022/04/15 09:33:56;;;;;;;0.60;0.60;;;19.90;59.40;;;;;;4978102;28;20038;-14
2022/04/15 09:36:44;;;;;;;0.50;0.50;;;19.90;59.40;;;;;;4978589;28;20046;-15
2022/04/15 09:39:16;;;;;;;0.65;0.65;;;19.90;59.40;;;;;;4975680;28;20046;-15
2022/04/15 09:41:49;;;;;;;1.23;0.80;;;19.90;59.30;;;;;;4959307;28;20067;-15
2022/04/15 09:44:14;;;;;;;0.60;0.60;;;19.90;59.30;;;;;;4959432;28;20743;-15
2022/04/15 09:46:46;;;;;;;0.93;0.70;;;19.90;59.30;;;;;;5002618;28;20109;-15
2022/04/15 09:49:12;;;;;;;0.98;0.60;;;19.90;60.00;;;;;;4976774;28;20389;-14
2022/04/15 09:51:57;;;;;;;0.60;0.60;;;19.90;59.40;;;;;;4961483;28;20078;-15
2022/04/15 09:54:24;;;;;;;0.60;0.60;;;20.00;59.40;;;;;;4953534;28;20130;-15
2022/04/15 09:56:54;;;;;;;0.52;0.52;;;20.00;59.40;;;;;;4958911;28;20053;-15
2022/04/15 09:59:23;;;;;;;0.63;0.60;;;20.00;59.50;;;;;;4958921;28;20102;-15
2022/04/15 10:01:53;;;;;;;0.60;0.60;;;20.00;59.50;;;;;;4958341;28;20492;-15
2022/04/15 10:04:19;;;;;;;1.00;0.80;;;20.00;59.60;;;;;;4967803;28;20047;-15
2022/04/15 10:06:44;;;;;;;1.65;0.80;;;20.00;59.60;;;;;;4957677;28;20600;-15
2022/04/15 10:09:11;;;;;;;0.85;0.50;;;20.00;59.60;;;;;;4956157;28;20078;-15
2022/04/15 10:11:44;;;;;;;1.75;0.60;;;20.10;59.50;;;;;;4958106;28;20051;-15
2022/04/15 10:14:11;;;;;;;1.75;0.50;;;20.00;59.50;;;;;;4972028;28;20074;-15
2022/04/15 10:16:39;;;;;;;0.70;0.50;;;20.10;59.50;;;;;;4978196;28;20049;-15
2022/04/15 10:19:06;;;;;;;0.70;0.55;;;20.10;59.50;;;;;;4970902;28;20035;-15
2022/04/15 10:21:38;;;;;;;1.00;0.68;;;20.10;59.70;;;;;;4958775;28;20086;-15
2022/04/15 10:24:03;;;;;;;0.63;0.50;;;20.10;59.60;;;;;;4959083;28;20512;-15
2022/04/15 10:26:43;;;;;;;0.70;0.70;;;20.10;59.50;;;;;;4975662;28;20570;-15
2022/04/15 10:29:11;;;;;;;0.50;0.50;;;20.10;59.60;;;;;;4976978;28;20049;-15
2022/04/15 10:31:38;;;;;;;1.70;0.80;;;20.10;59.60;;;;;;4974945;28;20492;-14
2022/04/15 10:34:19;;;;;;;0.70;0.60;;;20.10;59.50;;;;;;4957872;28;20201;-14
2022/04/15 10:37:04;;;;;;;1.25;0.50;;;20.10;59.50;;;;;;4976952;28;20101;-15
2022/04/15 10:39:30;;;;;;;0.70;0.70;;;20.10;59.60;;;;;;4962206;28;20183;-14
2022/04/15 10:42:01;;;;;;;0.55;0.55;;;20.10;59.50;;;;;;4955859;28;20074;-15
2022/04/15 10:44:38;;;;;;;0.60;0.60;;;20.10;59.50;;;;;;4958852;28;20047;-15
2022/04/15 10:47:19;;;;;;;1.08;0.88;;;20.10;59.50;;;;;;4957691;28;20047;-14
2022/04/15 10:49:55;;;;;;;0.82;0.57;;;20.20;59.60;;;;;;4971821;28;20046;-15
2022/04/15 10:52:24;;;;;;;0.88;0.50;;;20.10;59.50;;;;;;4976190;28;20396;-15
2022/04/15 10:55:08;;;;;;;0.50;0.50;;;20.10;59.50;;;;;;4969422;28;20050;-14
2022/04/15 10:57:35;;;;;;;;;;;20.20;59.50;;;;;;4958508;28;20035;-15
2022/04/15 11:02:50;;;;;;;0.50;0.50;;;20.20;59.50;;;;;;4958817;28;20500;-15
2022/04/15 11:05:36;;;;;;;0.75;0.60;;;20.20;59.50;;;;;;4957427;28;20445;-15
2022/04/15 11:08:21;;;;;;;0.70;0.47;;;20.20;59.40;;;;;;4956005;28;20424;-15
2022/04/15 11:10:54;;;;;;;0.60;0.57;;;20.20;59.40;;;;;;4964735;28;20047;-15
2022/04/15 11:13:23;;;;;;;0.65;0.65;;;20.20;59.40;;;;;;4957560;28;20055;-15
2022/04/15 11:16:13;;;;;;;0.55;0.50;;;20.20;59.40;;;;;;4958118;28;20046;-15
2022/04/15 11:18:46;;;;;;;0.38;0.38;;;20.20;59.30;;;;;;4976054;28;20512;-15
2022/04/15 11:21:19;;;;;;;0.60;0.60;;;20.20;59.30;;;;;;4960874;28;20087;-15
2022/04/15 11:23:55;;;;;;;0.47;0.47;;;20.20;59.50;;;;;;4973799;28;20337;-15
2022/04/15 11:26:25;;;;;;;0.75;0.50;;;20.20;59.40;;;;;;4957209;28;20054;-15
2022/04/15 11:28:53;;;;;;;0.45;0.45;;;20.20;59.30;;;;;;4957107;28;20572;-15
2022/04/15 11:31:27;;;;;;;0.68;0.68;;;20.30;59.30;;;;;;4957536;28;20057;-15
2022/04/15 11:33:53;;;;;;;;;;;20.20;59.30;;;;;;4965758;28;20074;-15
2022/04/15 11:36:20;;;;;;;0.45;0.45;;;20.20;59.40;;;;;;4976975;28;19914;-14
2022/04/15 11:38:46;;;;;;;0.50;0.50;;;20.20;59.30;;;;;;4973733;28;20039;-15
2022/04/15 11:41:21;;;;;;;0.50;0.50;;;20.20;59.20;;;;;;4956797;28;20493;-14
2022/04/15 11:43:53;;;;;;;0.75;0.50;;;20.20;59.30;;;;;;4957505;28;20055;-15
2022/04/15 11:46:18;;;;;;;0.60;0.60;;;20.30;59.30;;;;;;4958504;28;20062;-15
2022/04/15 11:48:45;;;;;;;0.43;0.43;;;20.20;59.30;;;;;;4957162;28;20082;-14
2022/04/15 11:51:10;;;;;;;0.50;0.40;;;20.20;59.30;;;;;;4956438;28;20066;-15
2022/04/15 11:53:36;;;;;;;0.50;0.50;;;20.30;59.30;;;;;;4957561;28;20051;-15
2022/04/15 11:56:02;;;;;;;0.30;0.30;;;20.20;59.30;;;;;;4966714;28;20043;-14
2022/04/15 11:58:35;;;;;;;0.70;0.60;;;20.20;59.30;;;;;;4975478;28;20448;-15
2022/04/15 12:01:01;;;;;;;0.50;0.45;;;20.30;59.20;;;;;;4966673;28;20126;-15
2022/04/15 12:03:27;;;;;;;1.42;0.40;;;20.30;59.20;;;;;;4956612;28;20448;-14
2022/04/15 12:05:54;;;;;;;0.40;0.40;;;20.20;59.30;;;;;;4956766;28;20043;-15
2022/04/15 12:08:20;;;;;;;0.93;0.55;;;20.30;59.30;;;;;;4966943;28;20145;-15
2022/04/15 12:10:46;;;;;;;0.63;0.60;;;20.30;59.40;;;;;;4976344;28;20047;-15
2022/04/15 12:13:12;;;;;;;0.82;0.50;;;20.30;59.20;;;;;;4972413;28;20034;-15
2022/04/15 12:15:38;;;;;;;0.43;0.43;;;20.30;59.80;;;;;;4628970;28;10001366;-15
2022/04/15 12:18:04;;;;;;;0.25;0.25;;;20.30;59.30;;;;;;4964754;28;20118;-14
2022/04/15 12:20:32;;;;;;;0.60;0.60;;;20.40;59.20;;;;;;4962840;28;20051;-15
2022/04/15 12:22:58;;;;;;;0.30;0.30;;;20.40;59.10;;;;;;4965856;28;20051;-15
2022/04/15 12:25:24;;;;;;;0.40;0.40;;;20.40;59.10;;;;;;4970505;28;20086;-15
2022/04/15 12:27:50;;;;;;;0.75;0.60;;;20.40;59.10;;;;;;4969033;28;20041;-15
2022/04/15 12:30:35;;;;;;;0.40;0.30;;;20.40;59.10;;;;;;4965022;28;20415;-15
2022/04/15 12:33:13;;;;;;;0.38;0.38;;;20.40;59.10;;;;;;4970187;28;20157;-16
2022/04/15 12:35:55;;;;;;;0.30;0.30;;;20.40;59.30;;;;;;4961926;28;20523;-15
2022/04/15 12:38:21;;;;;;;0.45;0.45;;;20.40;59.30;;;;;;4961321;28;20043;-15
2022/04/15 12:40:47;;;;;;;0.55;0.50;;;20.50;59.20;;;;;;4972892;28;20122;-14
2022/04/15 12:43:12;;;;;;;0.45;0.30;;;20.50;59.00;;;;;;4972818;28;20578;-15
2022/04/15 12:45:53;;;;;;;0.40;0.40;;;20.50;59.10;;;;;;4960760;28;20066;-14
2022/04/15 12:48:19;;;;;;;1.05;0.40;;;20.50;59.10;;;;;;4969726;28;20129;-14
2022/04/15 12:50:46;;;;;;;0.57;0.57;;;20.50;59.20;;;;;;4972074;28;20078;-14